sensor_id;sensor_type;location;lat;lon;timestamp;P1;durP1;ratioP1;P2;durP2;ratioP2
2564;SDS011;1292;48.020;7.822;2023-11-21T06:45:33;1.73;;;1.60;;
2564;SDS011;1292;48.020;7.822;2023-11-21T06:48:00;2.67;;;1.20;;
2564;SDS011;1292;48.020;7.822;2023-11-21T06:50:27;1.33;;;1.17;;
2564;SDS011;1292;48.020;7.822;2023-11-21T06:52:53;4.17;;;1.73;;
2564;SDS011;1292;48.020;7.822;2023-11-21T06:55:20;2.33;;;2.13;;
2564;SDS011;1292;48.020;7.822;2023-11-21T06:57:47;3.60;;;1.80;;
2564;SDS011;1292;48.020;7.822;2023-11-21T07:00:15;2.13;;;2.00;;
2564;SDS011;1292;48.020;7.822;2023-11-21T07:02:45;3.40;;;3.10;;
2564;SDS011;1292;48.020;7.822;2023-11-21T07:05:12;2.03;;;1.80;;
2564;SDS011;1292;48.020;7.822;2023-11-21T07:07:39;2.03;;;1.83;;
2564;SDS011;1292;48.020;7.822;2023-11-21T07:10:06;3.20;;;1.93;;
2564;SDS011;1292;48.020;7.822;2023-11-21T07:12:34;2.43;;;1.73;;
2564;SDS011;1292;48.020;7.822;2023-11-21T07:15:01;1.70;;;1.60;;
2564;SDS011;1292;48.020;7.822;2023-11-21T07:17:31;4.00;;;2.80;;
2564;SDS011;1292;48.020;7.822;2023-11-21T07:19:59;3.00;;;2.80;;
2564;SDS011;1292;48.020;7.822;2023-11-21T07:22:26;2.97;;;2.70;;
2564;SDS011;1292;48.020;7.822;2023-11-21T07:24:53;4.27;;;3.30;;
2564;SDS011;1292;48.020;7.822;2023-11-21T07:27:21;3.43;;;3.10;;
2564;SDS011;1292;48.020;7.822;2023-11-21T07:29:49;3.40;;;2.93;;
2564;SDS011;1292;48.020;7.822;2023-11-21T07:32:16;3.27;;;2.83;;
2564;SDS011;1292;48.020;7.822;2023-11-21T07:34:43;4.93;;;3.90;;
2564;SDS011;1292;48.020;7.822;2023-11-21T07:37:11;20.47;;;12.60;;
2564;SDS011;1292;48.020;7.822;2023-11-21T07:39:38;24.10;;;15.70;;
2564;SDS011;1292;48.020;7.822;2023-11-21T07:42:07;27.27;;;15.37;;
2564;SDS011;1292;48.020;7.822;2023-11-21T07:44:34;32.13;;;18.63;;
2564;SDS011;1292;48.020;7.822;2023-11-21T07:47:01;14.43;;;9.77;;
2564;SDS011;1292;48.020;7.822;2023-11-21T07:49:27;13.37;;;8.30;;
2564;SDS011;1292;48.020;7.822;2023-11-21T07:51:54;10.60;;;7.53;;
2564;SDS011;1292;48.020;7.822;2023-11-21T07:54:22;5.77;;;4.60;;
2564;SDS011;1292;48.020;7.822;2023-11-21T07:56:49;4.23;;;3.60;;
2564;SDS011;1292;48.020;7.822;2023-11-21T07:59:16;7.07;;;4.27;;
2564;SDS011;1292;48.020;7.822;2023-11-21T08:01:43;11.53;;;7.13;;
2564;SDS011;1292;48.020;7.822;2023-11-21T08:04:11;6.43;;;5.37;;
2564;SDS011;1292;48.020;7.822;2023-11-21T08:06:37;8.17;;;6.27;;
2564;SDS011;1292;48.020;7.822;2023-11-21T08:09:05;7.80;;;5.37;;
2564;SDS011;1292;48.020;7.822;2023-11-21T08:11:35;7.93;;;6.60;;
2564;SDS011;1292;48.020;7.822;2023-11-21T08:14:04;8.10;;;5.20;;
2564;SDS011;1292;48.020;7.822;2023-11-21T08:16:31;5.57;;;4.87;;
2564;SDS011;1292;48.020;7.822;2023-11-21T08:18:57;5.97;;;5.37;;
2564;SDS011;1292;48.020;7.822;2023-11-21T08:21:24;5.33;;;4.83;;
2564;SDS011;1292;48.020;7.822;2023-11-21T08:23:54;3.80;;;3.50;;
2564;SDS011;1292;48.020;7.822;2023-11-21T08:26:21;2.60;;;2.40;;
2564;SDS011;1292;48.020;7.822;2023-11-21T08:28:50;2.97;;;2.70;;
2564;SDS011;1292;48.020;7.822;2023-11-21T08:31:23;2.80;;;1.97;;
2564;SDS011;1292;48.020;7.822;2023-11-21T08:33:50;2.60;;;1.77;;
2564;SDS011;1292;48.020;7.822;2023-11-21T08:36:17;4.63;;;1.77;;
2564;SDS011;1292;48.020;7.822;2023-11-21T08:38:46;2.20;;;2.00;;
2564;SDS011;1292;48.020;7.822;2023-11-21T08:41:13;3.13;;;2.03;;
2564;SDS011;1292;48.020;7.822;2023-11-21T08:43:41;3.90;;;2.03;;
2564;SDS011;1292;48.020;7.822;2023-11-21T08:46:09;1.97;;;1.77;;
2564;SDS011;1292;48.020;7.822;2023-11-21T08:48:36;1.67;;;1.27;;
2564;SDS011;1292;48.020;7.822;2023-11-21T08:51:03;4.00;;;1.90;;
2564;SDS011;1292;48.020;7.822;2023-11-21T08:53:31;2.40;;;2.00;;
2564;SDS011;1292;48.020;7.822;2023-11-21T08:55:57;2.00;;;1.27;;
2564;SDS011;1292;48.020;7.822;2023-11-21T08:58:24;2.97;;;1.80;;
2564;SDS011;1292;48.020;7.822;2023-11-21T09:00:51;1.80;;;1.50;;
2564;SDS011;1292;48.020;7.822;2023-11-21T09:03:19;3.47;;;1.93;;
2564;SDS011;1292;48.020;7.822;2023-11-21T09:05:46;4.37;;;2.33;;
2564;SDS011;1292;48.020;7.822;2023-11-21T09:08:13;2.50;;;2.30;;
2564;SDS011;1292;48.020;7.822;2023-11-21T09:10:40;1.80;;;1.70;;
2564;SDS011;1292;48.020;7.822;2023-11-21T09:13:08;2.83;;;2.20;;
2564;SDS011;1292;48.020;7.822;2023-11-21T09:15:35;2.83;;;1.83;;
2564;SDS011;1292;48.020;7.822;2023-11-21T09:18:02;2.23;;;2.03;;
2564;SDS011;1292;48.020;7.822;2023-11-21T09:20:31;4.27;;;2.33;;
2564;SDS011;1292;48.020;7.822;2023-11-21T09:22:58;3.23;;;2.20;;
2564;SDS011;1292;48.020;7.822;2023-11-21T09:25:25;4.33;;;2.40;;
2564;SDS011;1292;48.020;7.822;2023-11-21T09:27:53;5.17;;;2.90;;
2564;SDS011;1292;48.020;7.822;2023-11-21T09:30:21;2.00;;;1.57;;
2564;SDS011;1292;48.020;7.822;2023-11-21T09:32:49;2.70;;;1.93;;
2564;SDS011;1292;48.020;7.822;2023-11-21T09:35:16;2.97;;;1.80;;
2564;SDS011;1292;48.020;7.822;2023-11-21T09:37:44;2.23;;;2.03;;
2564;SDS011;1292;48.020;7.822;2023-11-21T09:40:12;2.03;;;1.83;;
2564;SDS011;1292;48.020;7.822;2023-11-21T09:42:43;2.60;;;1.80;;
2564;SDS011;1292;48.020;7.822;2023-11-21T09:45:17;2.10;;;1.90;;
2564;SDS011;1292;48.020;7.822;2023-11-21T09:47:50;1.53;;;1.43;;
2564;SDS011;1292;48.020;7.822;2023-11-21T09:50:18;1.40;;;0.83;;
2564;SDS011;1292;48.020;7.822;2023-11-21T09:52:49;0.80;;;0.80;;
2564;SDS011;1292;48.020;7.822;2023-11-21T09:55:22;1.10;;;0.80;;
2564;SDS011;1292;48.020;7.822;2023-11-21T09:57:54;1.57;;;1.20;;
2564;SDS011;1292;48.020;7.822;2023-11-21T10:00:23;1.63;;;1.30;;
2564;SDS011;1292;48.020;7.822;2023-11-21T10:02:49;2.60;;;1.00;;
2564;SDS011;1292;48.020;7.822;2023-11-21T10:05:18;2.60;;;1.30;;
2564;SDS011;1292;48.020;7.822;2023-11-21T10:07:48;1.73;;;1.30;;
2564;SDS011;1292;48.020;7.822;2023-11-21T10:10:18;1.57;;;1.13;;
2564;SDS011;1292;48.020;7.822;2023-11-21T10:12:48;1.30;;;1.20;;
2564;SDS011;1292;48.020;7.822;2023-11-21T10:15:18;4.13;;;1.87;;
2564;SDS011;1292;48.020;7.822;2023-11-21T10:17:47;2.30;;;1.53;;
2564;SDS011;1292;48.020;7.822;2023-11-21T10:20:15;1.63;;;1.53;;
2564;SDS011;1292;48.020;7.822;2023-11-21T10:22:42;3.60;;;3.03;;
2564;SDS011;1292;48.020;7.822;2023-11-21T10:25:11;3.70;;;2.07;;
2564;SDS011;1292;48.020;7.822;2023-11-21T10:27:39;2.80;;;1.80;;
2564;SDS011;1292;48.020;7.822;2023-11-21T10:30:08;2.03;;;1.83;;
2564;SDS011;1292;48.020;7.822;2023-11-21T10:32:37;3.80;;;1.97;;
2564;SDS011;1292;48.020;7.822;2023-11-21T10:35:05;2.87;;;1.50;;
2564;SDS011;1292;48.020;7.822;2023-11-21T10:37:35;4.90;;;3.10;;
2564;SDS011;1292;48.020;7.822;2023-11-21T10:40:04;5.80;;;5.27;;
2564;SDS011;1292;48.020;7.822;2023-11-21T10:42:33;15.70;;;8.93;;
2564;SDS011;1292;48.020;7.822;2023-11-21T10:45:00;8.13;;;4.70;;
2564;SDS011;1292;48.020;7.822;2023-11-21T10:47:28;4.80;;;2.30;;
2564;SDS011;1292;48.020;7.822;2023-11-21T10:49:57;2.50;;;2.30;;
2564;SDS011;1292;48.020;7.822;2023-11-21T10:52:26;2.20;;;1.93;;
2564;SDS011;1292;48.020;7.822;2023-11-21T10:54:53;6.50;;;2.23;;
2564;SDS011;1292;48.020;7.822;2023-11-21T10:57:20;1.80;;;1.70;;
2564;SDS011;1292;48.020;7.822;2023-11-21T10:59:51;2.60;;;2.40;;
2564;SDS011;1292;48.020;7.822;2023-11-21T11:02:22;1.70;;;1.60;;
2564;SDS011;1292;48.020;7.822;2023-11-21T11:04:53;2.00;;;1.53;;
2564;SDS011;1292;48.020;7.822;2023-11-21T11:07:21;2.87;;;1.93;;
2564;SDS011;1292;48.020;7.822;2023-11-21T11:09:53;3.90;;;2.13;;
2564;SDS011;1292;48.020;7.822;2023-11-21T11:12:20;3.27;;;2.43;;
2564;SDS011;1292;48.020;7.822;2023-11-21T11:14:47;2.20;;;2.00;;
2564;SDS011;1292;48.020;7.822;2023-11-21T11:17:16;2.37;;;2.17;;
2564;SDS011;1292;48.020;7.822;2023-11-21T11:19:45;3.00;;;2.40;;
2564;SDS011;1292;48.020;7.822;2023-11-21T11:22:16;2.57;;;2.37;;
2564;SDS011;1292;48.020;7.822;2023-11-21T11:27:42;2.20;;;2.00;;
2564;SDS011;1292;48.020;7.822;2023-11-21T11:30:16;2.13;;;1.77;;
2564;SDS011;1292;48.020;7.822;2023-11-21T11:32:57;1.30;;;1.20;;
2564;SDS011;1292;48.020;7.822;2023-11-21T11:35:33;5.60;;;2.00;;
2564;SDS011;1292;48.020;7.822;2023-11-21T11:38:04;3.20;;;1.90;;
2564;SDS011;1292;48.020;7.822;2023-11-21T11:40:38;3.53;;;1.77;;
2564;SDS011;1292;48.020;7.822;2023-11-21T11:43:07;3.20;;;1.67;;
2564;SDS011;1292;48.020;7.822;2023-11-21T11:45:34;2.30;;;2.10;;
2564;SDS011;1292;48.020;7.822;2023-11-21T11:48:07;2.40;;;1.97;;
2564;SDS011;1292;48.020;7.822;2023-11-21T11:50:41;3.07;;;2.23;;
2564;SDS011;1292;48.020;7.822;2023-11-21T11:53:28;1.73;;;1.63;;
2564;SDS011;1292;48.020;7.822;2023-11-21T11:58:47;3.00;;;1.97;;
2564;SDS011;1292;48.020;7.822;2023-11-21T12:01:16;1.87;;;1.73;;
2564;SDS011;1292;48.020;7.822;2023-11-21T12:03:45;2.90;;;1.80;;
2564;SDS011;1292;48.020;7.822;2023-11-21T12:07:02;3.03;;;1.70;;
2564;SDS011;1292;48.020;7.822;2023-11-21T12:09:30;1.73;;;1.63;;
2564;SDS011;1292;48.020;7.822;2023-11-21T12:11:58;1.57;;;1.47;;
2564;SDS011;1292;48.020;7.822;2023-11-21T12:14:26;5.73;;;1.40;;
2564;SDS011;1292;48.020;7.822;2023-11-21T12:16:53;3.57;;;1.70;;
2564;SDS011;1292;48.020;7.822;2023-11-21T12:19:22;2.87;;;2.00;;
2564;SDS011;1292;48.020;7.822;2023-11-21T12:21:49;2.50;;;2.30;;
2564;SDS011;1292;48.020;7.822;2023-11-21T12:24:17;2.13;;;2.03;;
2564;SDS011;1292;48.020;7.822;2023-11-21T12:26:44;2.13;;;1.93;;
2564;SDS011;1292;48.020;7.822;2023-11-21T12:29:11;2.10;;;1.73;;
2564;SDS011;1292;48.020;7.822;2023-11-21T12:31:38;2.60;;;2.40;;
2564;SDS011;1292;48.020;7.822;2023-11-21T12:34:06;2.30;;;2.10;;
2564;SDS011;1292;48.020;7.822;2023-11-21T12:36:37;2.60;;;2.40;;
2564;SDS011;1292;48.020;7.822;2023-11-21T12:39:04;3.53;;;1.77;;
2564;SDS011;1292;48.020;7.822;2023-11-21T12:41:31;4.80;;;3.20;;
2564;SDS011;1292;48.020;7.822;2023-11-21T12:43:59;3.60;;;2.80;;
2564;SDS011;1292;48.020;7.822;2023-11-21T12:46:25;2.20;;;2.00;;
2564;SDS011;1292;48.020;7.822;2023-11-21T12:48:55;2.37;;;2.17;;
2564;SDS011;1292;48.020;7.822;2023-11-21T12:51:22;2.80;;;2.47;;
2564;SDS011;1292;48.020;7.822;2023-11-21T12:53:51;2.53;;;2.33;;
2564;SDS011;1292;48.020;7.822;2023-11-21T12:56:18;2.90;;;2.30;;
2564;SDS011;1292;48.020;7.822;2023-11-21T12:58:49;2.70;;;2.50;;
2564;SDS011;1292;48.020;7.822;2023-11-21T13:01:16;4.00;;;2.33;;
2564;SDS011;1292;48.020;7.822;2023-11-21T13:03:47;3.93;;;2.70;;
2564;SDS011;1292;48.020;7.822;2023-11-21T13:06:16;2.77;;;2.57;;
2564;SDS011;1292;48.020;7.822;2023-11-21T13:08:43;2.87;;;2.40;;
2564;SDS011;1292;48.020;7.822;2023-11-21T13:11:12;5.00;;;2.50;;
2564;SDS011;1292;48.020;7.822;2023-11-21T13:13:40;2.93;;;2.70;;
2564;SDS011;1292;48.020;7.822;2023-11-21T13:16:08;2.50;;;2.30;;
2564;SDS011;1292;48.020;7.822;2023-11-21T13:18:35;2.43;;;2.23;;
2564;SDS011;1292;48.020;7.822;2023-11-21T13:21:03;3.50;;;2.20;;
2564;SDS011;1292;48.020;7.822;2023-11-21T13:23:35;2.43;;;2.23;;
2564;SDS011;1292;48.020;7.822;2023-11-21T13:26:02;3.73;;;2.30;;
2564;SDS011;1292;48.020;7.822;2023-11-21T13:28:31;2.13;;;2.00;;
2564;SDS011;1292;48.020;7.822;2023-11-21T13:30:58;2.00;;;1.80;;
2564;SDS011;1292;48.020;7.822;2023-11-21T13:33:28;2.10;;;1.90;;
2564;SDS011;1292;48.020;7.822;2023-11-21T13:35:55;2.90;;;2.33;;
2564;SDS011;1292;48.020;7.822;2023-11-21T13:38:22;1.90;;;1.70;;
2564;SDS011;1292;48.020;7.822;2023-11-21T13:40:50;2.93;;;2.10;;
2564;SDS011;1292;48.020;7.822;2023-11-21T13:43:19;1.73;;;1.63;;
2564;SDS011;1292;48.020;7.822;2023-11-21T13:45:52;2.43;;;2.20;;
2564;SDS011;1292;48.020;7.822;2023-11-21T13:48:25;2.60;;;2.40;;
2564;SDS011;1292;48.020;7.822;2023-11-21T13:50:57;2.90;;;2.30;;
2564;SDS011;1292;48.020;7.822;2023-11-21T13:53:31;3.10;;;2.80;;
2564;SDS011;1292;48.020;7.822;2023-11-21T13:55:58;5.53;;;4.17;;
2564;SDS011;1292;48.020;7.822;2023-11-21T13:58:24;3.10;;;2.80;;
2564;SDS011;1292;48.020;7.822;2023-11-21T14:01:06;6.30;;;5.80;;
2564;SDS011;1292;48.020;7.822;2023-11-21T14:03:41;4.50;;;4.10;;
2564;SDS011;1292;48.020;7.822;2023-11-21T14:06:17;5.40;;;4.50;;
2564;SDS011;1292;48.020;7.822;2023-11-21T14:08:49;4.47;;;3.70;;
2564;SDS011;1292;48.020;7.822;2023-11-21T14:11:16;4.53;;;3.27;;
2564;SDS011;1292;48.020;7.822;2023-11-21T14:13:43;3.40;;;3.10;;
2564;SDS011;1292;48.020;7.822;2023-11-21T14:16:15;3.23;;;2.90;;
2564;SDS011;1292;48.020;7.822;2023-11-21T14:18:43;3.83;;;3.50;;
2564;SDS011;1292;48.020;7.822;2023-11-21T14:21:19;4.67;;;3.07;;
2564;SDS011;1292;48.020;7.822;2023-11-21T14:23:46;13.20;;;3.30;;
2564;SDS011;1292;48.020;7.822;2023-11-21T14:26:13;5.53;;;2.97;;
2564;SDS011;1292;48.020;7.822;2023-11-21T14:28:42;3.00;;;2.70;;
2564;SDS011;1292;48.020;7.822;2023-11-21T14:31:09;5.40;;;2.70;;
2564;SDS011;1292;48.020;7.822;2023-11-21T14:33:39;2.20;;;2.10;;
2564;SDS011;1292;48.020;7.822;2023-11-21T14:36:07;3.27;;;1.90;;
2564;SDS011;1292;48.020;7.822;2023-11-21T14:38:35;2.50;;;2.30;;
2564;SDS011;1292;48.020;7.822;2023-11-21T14:41:02;2.67;;;2.47;;
2564;SDS011;1292;48.020;7.822;2023-11-21T14:43:32;2.03;;;1.93;;
2564;SDS011;1292;48.020;7.822;2023-11-21T14:46:00;2.47;;;2.27;;
2564;SDS011;1292;48.020;7.822;2023-11-21T14:48:28;3.40;;;3.10;;
2564;SDS011;1292;48.020;7.822;2023-11-21T14:51:08;2.50;;;2.30;;
2564;SDS011;1292;48.020;7.822;2023-11-21T14:53:52;3.70;;;2.57;;
2564;SDS011;1292;48.020;7.822;2023-11-21T14:56:19;3.83;;;2.67;;
2564;SDS011;1292;48.020;7.822;2023-11-21T14:58:51;5.47;;;3.43;;
2564;SDS011;1292;48.020;7.822;2023-11-21T15:01:18;4.07;;;2.80;;
2564;SDS011;1292;48.020;7.822;2023-11-21T15:03:55;2.60;;;2.40;;
2564;SDS011;1292;48.020;7.822;2023-11-21T15:06:23;5.60;;;4.27;;
2564;SDS011;1292;48.020;7.822;2023-11-21T15:08:55;3.07;;;2.77;;
2564;SDS011;1292;48.020;7.822;2023-11-21T15:11:43;4.70;;;2.50;;
2564;SDS011;1292;48.020;7.822;2023-11-21T15:14:10;2.47;;;2.27;;
2564;SDS011;1292;48.020;7.822;2023-11-21T15:16:41;6.17;;;2.83;;
2564;SDS011;1292;48.020;7.822;2023-11-21T15:19:12;5.17;;;3.13;;
2564;SDS011;1292;48.020;7.822;2023-11-21T15:21:44;3.10;;;2.80;;
2564;SDS011;1292;48.020;7.822;2023-11-21T15:24:11;4.53;;;3.57;;
2564;SDS011;1292;48.020;7.822;2023-11-21T15:26:38;5.40;;;4.40;;
2564;SDS011;1292;48.020;7.822;2023-11-21T15:29:05;4.03;;;3.70;;
2564;SDS011;1292;48.020;7.822;2023-11-21T15:31:32;5.60;;;5.03;;
2564;SDS011;1292;48.020;7.822;2023-11-21T15:34:01;3.63;;;2.90;;
2564;SDS011;1292;48.020;7.822;2023-11-21T15:36:30;4.60;;;4.20;;
2564;SDS011;1292;48.020;7.822;2023-11-21T15:38:58;4.07;;;3.70;;
2564;SDS011;1292;48.020;7.822;2023-11-21T15:41:25;4.30;;;3.67;;
2564;SDS011;1292;48.020;7.822;2023-11-21T15:43:52;3.60;;;2.70;;
2564;SDS011;1292;48.020;7.822;2023-11-21T15:46:18;3.17;;;2.87;;
2564;SDS011;1292;48.020;7.822;2023-11-21T15:48:45;4.97;;;3.80;;
2564;SDS011;1292;48.020;7.822;2023-11-21T15:51:16;3.50;;;3.20;;
2564;SDS011;1292;48.020;7.822;2023-11-21T15:53:44;6.50;;;3.60;;
2564;SDS011;1292;48.020;7.822;2023-11-21T15:56:12;4.20;;;3.00;;
2564;SDS011;1292;48.020;7.822;2023-11-21T15:58:40;2.90;;;2.70;;
2564;SDS011;1292;48.020;7.822;2023-11-21T16:01:07;2.90;;;2.70;;
2564;SDS011;1292;48.020;7.822;2023-11-21T16:03:37;2.70;;;2.50;;
2564;SDS011;1292;48.020;7.822;2023-11-21T16:06:07;2.63;;;2.43;;
2564;SDS011;1292;48.020;7.822;2023-11-21T16:08:36;3.40;;;2.40;;
2564;SDS011;1292;48.020;7.822;2023-11-21T16:11:03;2.23;;;2.13;;
2564;SDS011;1292;48.020;7.822;2023-11-21T16:13:32;2.50;;;1.73;;
2564;SDS011;1292;48.020;7.822;2023-11-21T16:15:59;2.23;;;2.00;;
2564;SDS011;1292;48.020;7.822;2023-11-21T16:18:26;3.20;;;2.73;;
2564;SDS011;1292;48.020;7.822;2023-11-21T16:20:53;2.47;;;1.97;;
2564;SDS011;1292;48.020;7.822;2023-11-21T16:23:20;2.20;;;1.87;;
2564;SDS011;1292;48.020;7.822;2023-11-21T16:25:46;4.27;;;2.20;;
2564;SDS011;1292;48.020;7.822;2023-11-21T16:28:19;4.13;;;2.80;;
2564;SDS011;1292;48.020;7.822;2023-11-21T16:30:48;3.20;;;2.90;;
2564;SDS011;1292;48.020;7.822;2023-11-21T16:33:16;2.50;;;2.07;;
2564;SDS011;1292;48.020;7.822;2023-11-21T16:35:43;2.60;;;2.40;;
2564;SDS011;1292;48.020;7.822;2023-11-21T16:38:12;3.00;;;2.80;;
2564;SDS011;1292;48.020;7.822;2023-11-21T16:40:40;7.30;;;6.60;;
2564;SDS011;1292;48.020;7.822;2023-11-21T16:43:08;4.90;;;3.80;;
2564;SDS011;1292;48.020;7.822;2023-11-21T16:45:36;3.33;;;2.80;;
2564;SDS011;1292;48.020;7.822;2023-11-21T16:48:04;3.93;;;3.53;;
2564;SDS011;1292;48.020;7.822;2023-11-21T16:50:32;5.10;;;3.53;;
2564;SDS011;1292;48.020;7.822;2023-11-21T16:52:59;3.43;;;3.13;;
2564;SDS011;1292;48.020;7.822;2023-11-21T16:55:26;4.77;;;4.10;;
2564;SDS011;1292;48.020;7.822;2023-11-21T16:57:52;4.63;;;3.60;;
2564;SDS011;1292;48.020;7.822;2023-11-21T17:00:19;4.33;;;3.93;;
2564;SDS011;1292;48.020;7.822;2023-11-21T17:02:47;4.40;;;3.53;;
2564;SDS011;1292;48.020;7.822;2023-11-21T17:05:16;4.10;;;3.77;;
2564;SDS011;1292;48.020;7.822;2023-11-21T17:07:44;5.53;;;5.03;;
2564;SDS011;1292;48.020;7.822;2023-11-21T17:10:12;7.90;;;4.77;;
2564;SDS011;1292;48.020;7.822;2023-11-21T17:12:40;6.27;;;4.50;;
2564;SDS011;1292;48.020;7.822;2023-11-21T17:15:07;7.63;;;7.03;;
2564;SDS011;1292;48.020;7.822;2023-11-21T17:17:34;7.00;;;6.40;;
2564;SDS011;1292;48.020;7.822;2023-11-21T17:20:02;5.90;;;4.80;;
2564;SDS011;1292;48.020;7.822;2023-11-21T17:22:34;5.60;;;5.10;;
2564;SDS011;1292;48.020;7.822;2023-11-21T17:25:00;5.50;;;4.93;;
2564;SDS011;1292;48.020;7.822;2023-11-21T17:27:28;4.53;;;4.13;;
2564;SDS011;1292;48.020;7.822;2023-11-21T17:29:55;4.83;;;4.40;;
2564;SDS011;1292;48.020;7.822;2023-11-21T17:32:22;5.70;;;5.20;;
2564;SDS011;1292;48.020;7.822;2023-11-21T17:34:49;5.83;;;5.00;;
2564;SDS011;1292;48.020;7.822;2023-11-21T17:37:16;5.00;;;4.50;;
2564;SDS011;1292;48.020;7.822;2023-11-21T17:39:44;7.40;;;5.43;;
2564;SDS011;1292;48.020;7.822;2023-11-21T17:42:11;5.00;;;4.60;;
2564;SDS011;1292;48.020;7.822;2023-11-21T17:44:38;5.63;;;5.03;;
2564;SDS011;1292;48.020;7.822;2023-11-21T17:47:05;6.13;;;5.53;;
2564;SDS011;1292;48.020;7.822;2023-11-21T17:49:34;7.17;;;6.57;;
2564;SDS011;1292;48.020;7.822;2023-11-21T17:52:01;8.87;;;8.07;;
2564;SDS011;1292;48.020;7.822;2023-11-21T17:54:28;6.30;;;5.70;;
2564;SDS011;1292;48.020;7.822;2023-11-21T17:56:56;7.40;;;6.07;;
2564;SDS011;1292;48.020;7.822;2023-11-21T17:59:23;6.80;;;6.20;;
2564;SDS011;1292;48.020;7.822;2023-11-21T18:01:49;12.33;;;7.40;;
2564;SDS011;1292;48.020;7.822;2023-11-21T18:04:16;10.37;;;6.93;;
2564;SDS011;1292;48.020;7.822;2023-11-21T18:06:44;8.00;;;7.20;;
2564;SDS011;1292;48.020;7.822;2023-11-21T18:09:11;7.50;;;6.80;;
2564;SDS011;1292;48.020;7.822;2023-11-21T18:11:40;8.43;;;7.50;;
2564;SDS011;1292;48.020;7.822;2023-11-21T18:14:08;8.70;;;7.73;;
2564;SDS011;1292;48.020;7.822;2023-11-21T18:16:36;9.13;;;7.70;;
2564;SDS011;1292;48.020;7.822;2023-11-21T18:19:03;8.87;;;6.97;;
2564;SDS011;1292;48.020;7.822;2023-11-21T18:21:30;8.83;;;7.10;;
2564;SDS011;1292;48.020;7.822;2023-11-21T18:23:57;8.83;;;7.23;;
2564;SDS011;1292;48.020;7.822;2023-11-21T18:26:24;8.87;;;6.80;;
2564;SDS011;1292;48.020;7.822;2023-11-21T18:28:51;11.30;;;8.13;;
2564;SDS011;1292;48.020;7.822;2023-11-21T18:31:19;8.10;;;7.30;;
2564;SDS011;1292;48.020;7.822;2023-11-21T18:33:46;9.83;;;7.70;;
2564;SDS011;1292;48.020;7.822;2023-11-21T18:36:13;8.80;;;7.67;;
2564;SDS011;1292;48.020;7.822;2023-11-21T18:38:40;13.00;;;11.50;;
2564;SDS011;1292;48.020;7.822;2023-11-21T18:41:07;10.53;;;8.90;;
2564;SDS011;1292;48.020;7.822;2023-11-21T18:43:34;13.13;;;11.30;;
2564;SDS011;1292;48.020;7.822;2023-11-21T18:46:00;13.10;;;11.00;;
2564;SDS011;1292;48.020;7.822;2023-11-21T18:48:29;8.10;;;7.30;;
2564;SDS011;1292;48.020;7.822;2023-11-21T18:50:56;11.53;;;10.40;;
2564;SDS011;1292;48.020;7.822;2023-11-21T18:53:23;9.00;;;8.07;;
2564;SDS011;1292;48.020;7.822;2023-11-21T18:55:53;10.90;;;7.80;;
2564;SDS011;1292;48.020;7.822;2023-11-21T18:58:21;13.57;;;9.77;;
2564;SDS011;1292;48.020;7.822;2023-11-21T19:00:47;10.67;;;9.63;;
2564;SDS011;1292;48.020;7.822;2023-11-21T19:03:14;12.27;;;8.90;;
2564;SDS011;1292;48.020;7.822;2023-11-21T19:05:43;8.77;;;7.97;;
2564;SDS011;1292;48.020;7.822;2023-11-21T19:08:09;9.77;;;8.83;;
2564;SDS011;1292;48.020;7.822;2023-11-21T19:10:36;9.40;;;8.07;;
2564;SDS011;1292;48.020;7.822;2023-11-21T19:13:03;9.83;;;8.83;;
2564;SDS011;1292;48.020;7.822;2023-11-21T19:15:31;10.47;;;9.27;;
2564;SDS011;1292;48.020;7.822;2023-11-21T19:17:58;9.47;;;8.50;;
2564;SDS011;1292;48.020;7.822;2023-11-21T19:20:25;9.50;;;7.80;;
2564;SDS011;1292;48.020;7.822;2023-11-21T19:22:53;10.80;;;7.97;;
2564;SDS011;1292;48.020;7.822;2023-11-21T19:25:20;10.90;;;9.83;;
2564;SDS011;1292;48.020;7.822;2023-11-21T19:27:48;10.23;;;8.47;;
2564;SDS011;1292;48.020;7.822;2023-11-21T19:30:15;9.13;;;8.23;;
2564;SDS011;1292;48.020;7.822;2023-11-21T19:32:42;10.57;;;8.47;;
2564;SDS011;1292;48.020;7.822;2023-11-21T19:35:10;10.13;;;8.90;;
2564;SDS011;1292;48.020;7.822;2023-11-21T19:37:36;7.87;;;7.10;;
2564;SDS011;1292;48.020;7.822;2023-11-21T19:40:05;12.40;;;11.10;;
2564;SDS011;1292;48.020;7.822;2023-11-21T19:42:33;8.40;;;7.60;;
2564;SDS011;1292;48.020;7.822;2023-11-21T19:45:01;13.50;;;12.20;;
2564;SDS011;1292;48.020;7.822;2023-11-21T19:47:28;11.73;;;10.20;;
2564;SDS011;1292;48.020;7.822;2023-11-21T19:49:58;8.03;;;7.23;;
2564;SDS011;1292;48.020;7.822;2023-11-21T19:52:25;9.80;;;7.70;;
2564;SDS011;1292;48.020;7.822;2023-11-21T19:54:52;8.93;;;8.13;;
2564;SDS011;1292;48.020;7.822;2023-11-21T19:57:20;9.30;;;8.50;;
2564;SDS011;1292;48.020;7.822;2023-11-21T19:59:47;8.83;;;7.93;;
2564;SDS011;1292;48.020;7.822;2023-11-21T20:02:14;9.50;;;7.60;;
2564;SDS011;1292;48.020;7.822;2023-11-21T20:04:41;10.10;;;8.97;;
2564;SDS011;1292;48.020;7.822;2023-11-21T20:07:08;9.70;;;8.70;;
2564;SDS011;1292;48.020;7.822;2023-11-21T20:09:35;12.43;;;9.10;;
2564;SDS011;1292;48.020;7.822;2023-11-21T20:12:02;12.63;;;10.73;;
2564;SDS011;1292;48.020;7.822;2023-11-21T20:14:31;11.73;;;10.53;;
2564;SDS011;1292;48.020;7.822;2023-11-21T20:16:59;11.80;;;9.70;;
2564;SDS011;1292;48.020;7.822;2023-11-21T20:19:27;13.40;;;9.97;;
2564;SDS011;1292;48.020;7.822;2023-11-21T20:21:55;11.30;;;9.00;;
2564;SDS011;1292;48.020;7.822;2023-11-21T20:24:22;11.93;;;9.43;;
2564;SDS011;1292;48.020;7.822;2023-11-21T20:26:49;11.63;;;8.30;;
2564;SDS011;1292;48.020;7.822;2023-11-21T20:29:15;12.67;;;9.17;;
2564;SDS011;1292;48.020;7.822;2023-11-21T20:31:44;10.80;;;9.37;;
2564;SDS011;1292;48.020;7.822;2023-11-21T20:34:11;13.87;;;9.20;;
2564;SDS011;1292;48.020;7.822;2023-11-21T20:36:38;9.30;;;7.87;;
2564;SDS011;1292;48.020;7.822;2023-11-21T20:39:05;10.93;;;9.50;;
2564;SDS011;1292;48.020;7.822;2023-11-21T20:41:32;11.00;;;8.80;;
2564;SDS011;1292;48.020;7.822;2023-11-21T20:43:59;10.17;;;8.27;;
2564;SDS011;1292;48.020;7.822;2023-11-21T20:46:26;11.37;;;7.30;;
2564;SDS011;1292;48.020;7.822;2023-11-21T20:48:55;13.33;;;8.27;;
2564;SDS011;1292;48.020;7.822;2023-11-21T20:51:21;13.23;;;8.57;;
2564;SDS011;1292;48.020;7.822;2023-11-21T20:53:48;10.07;;;8.80;;
2564;SDS011;1292;48.020;7.822;2023-11-21T20:56:15;14.47;;;9.20;;
2564;SDS011;1292;48.020;7.822;2023-11-21T20:58:43;9.80;;;8.47;;
2564;SDS011;1292;48.020;7.822;2023-11-21T21:01:10;12.23;;;9.60;;
2564;SDS011;1292;48.020;7.822;2023-11-21T21:03:38;10.80;;;8.40;;
2564;SDS011;1292;48.020;7.822;2023-11-21T21:06:07;16.23;;;8.97;;
2564;SDS011;1292;48.020;7.822;2023-11-21T21:08:33;11.10;;;8.50;;
2564;SDS011;1292;48.020;7.822;2023-11-21T21:11:00;13.20;;;8.40;;
2564;SDS011;1292;48.020;7.822;2023-11-21T21:13:27;10.87;;;8.20;;
2564;SDS011;1292;48.020;7.822;2023-11-21T21:15:54;9.97;;;9.07;;
2564;SDS011;1292;48.020;7.822;2023-11-21T21:18:21;11.77;;;8.33;;
2564;SDS011;1292;48.020;7.822;2023-11-21T21:20:51;10.50;;;8.40;;
2564;SDS011;1292;48.020;7.822;2023-11-21T21:23:20;13.63;;;9.20;;
2564;SDS011;1292;48.020;7.822;2023-11-21T21:25:47;11.07;;;8.10;;
2564;SDS011;1292;48.020;7.822;2023-11-21T21:28:13;10.90;;;8.60;;
2564;SDS011;1292;48.020;7.822;2023-11-21T21:30:40;10.77;;;7.50;;
2564;SDS011;1292;48.020;7.822;2023-11-21T21:33:09;12.97;;;7.90;;
2564;SDS011;1292;48.020;7.822;2023-11-21T21:35:36;9.63;;;7.97;;
2564;SDS011;1292;48.020;7.822;2023-11-21T21:38:03;10.30;;;8.87;;
2564;SDS011;1292;48.020;7.822;2023-11-21T21:40:32;8.07;;;6.67;;
2564;SDS011;1292;48.020;7.822;2023-11-21T21:43:00;8.63;;;6.93;;
2564;SDS011;1292;48.020;7.822;2023-11-21T21:45:27;19.23;;;8.43;;
2564;SDS011;1292;48.020;7.822;2023-11-21T21:47:54;10.23;;;8.23;;
2564;SDS011;1292;48.020;7.822;2023-11-21T21:50:21;8.63;;;7.33;;
2564;SDS011;1292;48.020;7.822;2023-11-21T21:52:50;9.77;;;8.00;;
2564;SDS011;1292;48.020;7.822;2023-11-21T21:55:18;11.17;;;8.77;;
2564;SDS011;1292;48.020;7.822;2023-11-21T21:57:46;11.43;;;8.33;;
2564;SDS011;1292;48.020;7.822;2023-11-21T22:00:13;10.87;;;9.77;;
2564;SDS011;1292;48.020;7.822;2023-11-21T22:02:41;11.07;;;8.73;;
2564;SDS011;1292;48.020;7.822;2023-11-21T22:05:11;9.80;;;8.73;;
2564;SDS011;1292;48.020;7.822;2023-11-21T22:07:39;9.83;;;8.83;;
2564;SDS011;1292;48.020;7.822;2023-11-21T22:10:06;10.77;;;8.87;;